createdAt,value
2023-02-02T00:04:16.385Z,-0.19
2023-02-02T00:09:20.294Z,-0.23
2023-02-02T00:14:23.820Z,-0.26
2023-02-02T00:19:28.158Z,-0.29
2023-02-02T00:24:30.200Z,-0.29
2023-02-02T00:29:33.595Z,-0.31
2023-02-02T00:34:35.601Z,-0.30
2023-02-02T00:39:37.585Z,-0.25
2023-02-02T00:44:59.597Z,-0.26
2023-02-02T00:50:01.600Z,-0.25
2023-02-02T00:55:04.323Z,-0.24
2023-02-02T01:00:12.341Z,-0.26
2023-02-02T01:05:14.304Z,-0.21
2023-02-02T01:10:17.790Z,-0.23
2023-02-02T01:15:21.109Z,-0.10
2023-02-02T01:20:24.140Z,-0.11
2023-02-02T01:25:27.420Z,-0.12
2023-02-02T01:30:30.736Z,-0.01
2023-02-02T01:35:33.383Z,-0.14
2023-02-02T01:40:35.479Z,-0.10
2023-02-02T01:45:38.819Z,-0.08
2023-02-02T01:50:42.212Z,-0.05
2023-02-02T01:55:44.488Z,0.06
2023-02-02T02:00:47.890Z,0.03
2023-02-02T02:05:54.107Z,0.09
2023-02-02T02:10:56.940Z,0.19
2023-02-02T02:16:20.787Z,0.28
2023-02-02T02:21:59.101Z,0.27
2023-02-02T02:27:18.827Z,0.36
2023-02-02T02:32:31.674Z,0.38
2023-02-02T02:37:41.907Z,0.40
2023-02-02T02:42:47.385Z,0.44
2023-02-02T02:47:52.387Z,0.43
2023-02-02T02:53:00.359Z,0.50
2023-02-02T02:58:09.311Z,0.57
2023-02-02T03:03:20.926Z,0.53
2023-02-02T03:08:31.405Z,0.43
2023-02-02T03:13:33.309Z,0.51
2023-02-02T03:18:36.693Z,0.57
2023-02-02T03:23:39.145Z,0.65
2023-02-02T03:28:41.921Z,0.74
2023-02-02T03:33:45.591Z,0.75
2023-02-02T03:38:47.567Z,0.75
2023-02-02T03:43:49.546Z,0.62
2023-02-02T03:48:52.888Z,0.72
2023-02-02T03:53:54.841Z,0.73
2023-02-02T03:58:56.817Z,0.82
2023-02-02T04:04:00.131Z,0.77
2023-02-02T04:09:02.076Z,0.73
2023-02-02T04:14:04.100Z,0.66
2023-02-02T04:19:07.587Z,0.74
2023-02-02T04:24:11.956Z,0.80
2023-02-02T04:29:13.979Z,0.81
2023-02-02T04:34:17.553Z,0.80
2023-02-02T04:39:19.483Z,0.94
2023-02-02T04:44:21.456Z,0.88
2023-02-02T04:49:24.819Z,0.95
2023-02-02T04:54:26.860Z,0.91
2023-02-02T04:59:30.028Z,0.85
2023-02-02T05:04:34.016Z,0.84
2023-02-02T05:09:36.028Z,0.83
2023-02-02T05:14:38.109Z,0.95
2023-02-02T05:19:41.716Z,0.99
2023-02-02T05:24:43.691Z,0.98
2023-02-02T05:29:47.000Z,1.02
2023-02-02T05:34:50.296Z,1.02
2023-02-02T05:39:53.666Z,1.04
2023-02-02T05:44:56.479Z,1.12
2023-02-02T05:49:59.863Z,1.08
2023-02-02T05:55:02.073Z,0.99
2023-02-02T06:00:05.556Z,1.13
2023-02-02T06:05:09.522Z,1.20
2023-02-02T06:10:11.573Z,1.12
2023-02-02T06:15:13.550Z,1.28
2023-02-02T06:20:16.984Z,1.22
2023-02-02T06:25:18.936Z,1.19
2023-02-02T06:30:20.926Z,1.22
2023-02-02T06:35:24.544Z,1.16
2023-02-02T06:40:26.915Z,1.19
2023-02-02T06:45:30.845Z,1.16
2023-02-02T06:50:34.173Z,1.25
2023-02-02T06:55:36.150Z,1.35
2023-02-02T07:00:38.275Z,1.35
2023-02-02T07:05:41.711Z,1.34
2023-02-02T07:11:14.513Z,1.06
2023-02-02T07:16:09.343Z,0.48
2023-02-02T07:21:18.607Z,0.54
2023-02-02T07:26:20.978Z,0.58
2023-02-02T07:31:24.532Z,0.78
2023-02-02T07:36:27.983Z,0.98
2023-02-02T07:41:30.180Z,1.28
2023-02-02T07:46:32.250Z,1.26
2023-02-02T07:51:37.920Z,1.46
2023-02-02T07:56:40.834Z,1.46
2023-02-02T08:01:42.863Z,1.39
2023-02-02T08:06:46.197Z,1.12
2023-02-02T08:11:48.555Z,1.01
2023-02-02T08:16:50.587Z,1.10
2023-02-02T08:21:53.936Z,1.26
2023-02-02T08:26:55.905Z,1.42
2023-02-02T08:31:58.772Z,1.51
2023-02-02T08:37:02.150Z,1.68
2023-02-02T08:42:04.245Z,1.74
2023-02-02T08:47:06.276Z,1.70
2023-02-02T08:52:10.259Z,1.72
2023-02-02T08:57:12.228Z,1.71
2023-02-02T09:02:14.292Z,2.04
2023-02-02T09:07:18.881Z,2.13
2023-02-02T09:12:22.988Z,2.23
2023-02-02T09:17:29.591Z,1.86
2023-02-02T09:22:32.968Z,-145.47
2023-02-02T09:27:37.338Z,-145.47
2023-02-02T09:32:39.869Z,-145.47
2023-02-02T09:37:48.756Z,-145.47
2023-02-02T09:43:04.672Z,-145.47
2023-02-02T09:48:19.317Z,-145.47
2023-02-02T09:53:36.603Z,-145.47
2023-02-02T09:58:48.859Z,-145.47
2023-02-02T10:03:58.390Z,-145.47
2023-02-02T10:09:06.624Z,-145.47
2023-02-02T10:14:16.231Z,-145.47
2023-02-02T10:19:33.701Z,-145.47
2023-02-02T10:24:37.374Z,-145.47
2023-02-02T10:30:46.827Z,-145.47
2023-02-02T10:35:56.994Z,-145.47
2023-02-02T10:41:11.624Z,-145.47
2023-02-02T10:46:20.378Z,-145.47
2023-02-02T10:52:26.689Z,-145.47
2023-02-02T10:58:46.318Z,-145.47
2023-02-02T11:05:06.338Z,-145.47
2023-02-02T11:11:11.903Z,-145.47
2023-02-02T11:16:43.745Z,-145.47
2023-02-02T11:22:45.766Z,-145.47
2023-02-02T11:28:47.567Z,-145.47
2023-02-02T11:34:49.494Z,-145.47
2023-02-02T11:40:53.913Z,-145.47
2023-02-02T11:47:00.503Z,-145.47
2023-02-02T11:53:05.156Z,-145.47
2023-02-02T11:59:27.550Z,-145.47
2023-02-02T12:05:35.632Z,-145.47
2023-02-02T12:11:44.411Z,-145.47
2023-02-02T12:17:52.288Z,-145.47
2023-02-02T12:24:04.078Z,-145.47
2023-02-02T12:30:21.621Z,-145.47
2023-02-02T12:36:38.293Z,-145.47
2023-02-02T12:42:52.787Z,-145.47
2023-02-02T12:49:05.783Z,-145.47
2023-02-02T12:55:24.691Z,-145.47
2023-02-02T13:01:47.287Z,-145.47
2023-02-02T13:08:09.920Z,-145.47
2023-02-02T13:14:16.214Z,-145.47
2023-02-02T13:20:33.064Z,-145.47
2023-02-02T13:26:41.697Z,-145.47
2023-02-02T13:32:46.279Z,-145.47
2023-02-02T13:38:50.608Z,-145.47
2023-02-02T13:44:58.553Z,-145.47
2023-02-02T13:51:12.199Z,-145.47
2023-02-02T13:57:38.379Z,-145.47
2023-02-02T14:03:40.807Z,-145.47
2023-02-02T14:09:48.675Z,-145.47
2023-02-02T14:15:55.135Z,-145.47
2023-02-02T14:22:05.128Z,-145.47
2023-02-02T14:28:40.337Z,-145.47
2023-02-02T14:34:41.791Z,-145.47
2023-02-02T14:40:55.863Z,-145.47
2023-02-02T14:47:42.342Z,-145.47
2023-02-02T14:53:47.951Z,-145.47
2023-02-02T14:59:58.738Z,-145.47
2023-02-02T15:06:31.677Z,-145.47
2023-02-02T15:13:04.538Z,-145.47
2023-02-02T15:19:15.471Z,-145.47
2023-02-02T15:25:20.151Z,-145.47
2023-02-02T15:31:27.188Z,-145.47
2023-02-02T15:37:36.022Z,-145.47
2023-02-02T15:43:39.984Z,-145.47
2023-02-02T15:49:40.846Z,-145.47
2023-02-02T15:55:49.041Z,-145.47
2023-02-02T16:01:59.578Z,-145.47
2023-02-02T16:08:07.813Z,-145.47
2023-02-02T16:14:20.497Z,-145.47
2023-02-02T16:20:21.809Z,-145.47
2023-02-02T16:26:25.450Z,-145.47
2023-02-02T16:32:28.864Z,-145.47
2023-02-02T16:38:31.762Z,-145.47
2023-02-02T16:44:38.810Z,-145.47
2023-02-02T16:50:40.796Z,-145.47
2023-02-02T16:56:47.710Z,-145.47
2023-02-02T17:02:52.119Z,-145.47
2023-02-02T17:08:55.522Z,-145.47
2023-02-02T17:14:58.294Z,-145.47
2023-02-02T17:21:04.037Z,-145.47
2023-02-02T17:27:12.942Z,-145.47
2023-02-02T17:33:17.596Z,-145.47
2023-02-02T17:39:18.172Z,-145.47
2023-02-02T17:45:20.933Z,-145.47
2023-02-02T17:51:21.558Z,-145.47
2023-02-02T17:57:22.086Z,-145.47
2023-02-02T18:03:25.042Z,-145.47
2023-02-02T18:09:26.133Z,-145.47
2023-02-02T18:15:26.810Z,-145.47
2023-02-02T18:21:29.797Z,-145.47
2023-02-02T18:27:30.845Z,-145.47
2023-02-02T18:33:31.867Z,-145.47
2023-02-02T18:39:33.829Z,-145.47
2023-02-02T18:45:35.644Z,-145.47
2023-02-02T18:51:36.372Z,-145.47
2023-02-02T18:57:38.648Z,-145.47
2023-02-02T19:03:39.519Z,-145.47
2023-02-02T19:09:40.090Z,-145.47
2023-02-02T19:15:42.357Z,-145.47
2023-02-02T19:21:43.896Z,-145.47
2023-02-02T19:27:45.196Z,-145.47
2023-02-02T19:33:48.497Z,-145.47
2023-02-02T19:39:50.532Z,-145.47
2023-02-02T19:45:52.384Z,-145.47
2023-02-02T19:51:55.198Z,-145.47
2023-02-02T19:58:00.051Z,-145.47
2023-02-02T20:04:04.005Z,-145.47
2023-02-02T20:10:15.031Z,-145.47
2023-02-02T20:16:35.912Z,-145.47
2023-02-02T20:22:37.901Z,-145.47
2023-02-02T20:28:41.682Z,-145.47
2023-02-02T20:34:43.927Z,-145.47
2023-02-02T20:40:45.472Z,-145.47
2023-02-02T20:46:47.603Z,-145.47
2023-02-02T20:52:48.399Z,-145.47
2023-02-02T20:58:48.942Z,-145.47
2023-02-02T21:04:51.468Z,-145.47
2023-02-02T21:10:52.046Z,-145.47
2023-02-02T21:16:57.411Z,-145.47
2023-02-02T21:23:08.513Z,-145.47
2023-02-02T21:29:09.025Z,-145.47
2023-02-02T21:35:10.316Z,-145.47
2023-02-02T21:41:14.420Z,-145.47
2023-02-02T21:47:22.567Z,-145.47
2023-02-02T21:53:25.710Z,-145.47
2023-02-02T21:59:36.616Z,-145.47
2023-02-02T22:05:37.225Z,-145.47
2023-02-02T22:11:44.289Z,-145.47
2023-02-02T22:17:48.172Z,-145.47
2023-02-02T22:23:49.131Z,-145.47
2023-02-02T22:29:50.784Z,-145.47
2023-02-02T22:35:53.347Z,-145.47
2023-02-02T22:41:53.839Z,-145.47
2023-02-02T22:47:54.578Z,-145.47
2023-02-02T22:53:56.753Z,-145.47
2023-02-02T22:59:57.267Z,-145.47
2023-02-02T23:05:57.742Z,-145.47
2023-02-02T23:11:59.576Z,-145.47
2023-02-02T23:18:00.216Z,-145.47
2023-02-02T23:24:00.766Z,-145.47
2023-02-02T23:30:04.921Z,-145.47
2023-02-02T23:36:06.580Z,-145.47
2023-02-02T23:42:07.078Z,-145.47
2023-02-02T23:48:09.572Z,-145.47
2023-02-02T23:54:10.979Z,-145.47
